Time;durP1;ratioP1;P1;durP2;ratioP2;P2;SDS_P1;SDS_P2;PMS_P1;PMS_P2;Temp;Humidity;BMP_temperature;BMP_pressure;BME280_temperature;BME280_humidity;BME280_pressure;Samples;Min_cycle;Max_cycle;Signal;HPM_P1;HPM_P2
2022/08/19 00:00:10;;;;;;;6.78;2.80;;;;;;;;;;5042080;28;20060;-50
2022/08/19 00:02:36;;;;;;;2.92;1.98;;;;;;;;;;5044103;28;20109;-52
2022/08/19 00:05:03;;;;;;;5.65;1.70;;;;;;;;;;5045974;28;20103;-47
2022/08/19 00:07:29;;;;;;;1.80;1.70;;;;;;;;;;5045142;28;20044;-51
2022/08/19 00:09:55;;;;;;;6.15;1.73;;;;;;;;;;5046018;28;20037;-49
2022/08/19 00:12:21;;;;;;;1.95;1.85;;;;;;;;;;5046745;28;20036;-49
2022/08/19 00:14:47;;;;;;;2.03;1.67;;;;;;;;;;5044349;28;20029;-46
2022/08/19 00:17:13;;;;;;;3.55;1.80;;;;;;;;;;5046339;28;20135;-52
2022/08/19 00:19:38;;;;;;;1.83;1.50;;;;;;;;;;5043612;28;20025;-49
2022/08/19 00:22:05;;;;;;;1.90;1.60;;;;;;;;;;5043170;28;20037;-50
2022/08/19 00:24:31;;;;;;;2.75;1.52;;;;;;;;;;5043994;28;20103;-49
2022/08/19 00:26:57;;;;;;;1.45;1.42;;;;;;;;;;5043965;28;20063;-50
2022/08/19 00:29:24;;;;;;;1.90;1.80;;;;;;;;;;5047528;28;20024;-51
2022/08/19 00:31:54;;;;;;;1.75;1.30;;;;;;;;;;5040883;28;20029;-48
2022/08/19 00:34:21;;;;;;;1.63;1.52;;;;;;;;;;5042228;28;20037;-51
2022/08/19 00:36:48;;;;;;;2.20;1.60;;;;;;;;;;5042618;28;20028;-48
2022/08/19 00:39:15;;;;;;;6.47;1.70;;;;;;;;;;5045993;28;20037;-50
2022/08/19 00:41:42;;;;;;;8.75;1.80;;;;;;;;;;5043416;28;20068;-50
2022/08/19 00:44:12;;;;;;;4.57;1.70;;;;;;;;;;5045033;28;20025;-45
2022/08/19 00:46:40;;;;;;;1.48;1.38;;;;;;;;;;5041042;28;20108;-52
2022/08/19 00:49:16;;;;;;;3.65;1.58;;;;;;;;;;5043036;28;20021;-51
2022/08/19 00:51:46;;;;;;;1.65;1.30;;;;;;;;;;5043648;28;20032;-50
2022/08/19 00:54:12;;;;;;;2.47;1.90;;;;;;;;;;5041337;28;20032;-47
2022/08/19 00:56:39;;;;;;;1.55;1.45;;;;;;;;;;5045407;28;20029;-47
2022/08/19 00:59:09;;;;;;;2.47;1.38;;;;;;;;;;5041806;28;20036;-48
2022/08/19 01:01:40;;;;;;;2.45;1.73;;;;;;;;;;5045463;28;20043;-53
2022/08/19 01:04:06;;;;;;;3.53;1.60;;;;;;;;;;5048998;28;20025;-47
2022/08/19 01:06:32;;;;;;;2.38;1.55;;;;;;;;;;5045180;28;20068;-50
2022/08/19 01:08:59;;;;;;;2.58;1.45;;;;;;;;;;5043858;28;20401;-46
2022/08/19 01:11:26;;;;;;;3.40;1.33;;;;;;;;;;5042990;28;20040;-45
2022/08/19 01:13:53;;;;;;;1.98;1.20;;;;;;;;;;5044602;28;20029;-51
2022/08/19 01:16:21;;;;;;;2.72;1.58;;;;;;;;;;5043210;28;20079;-48
2022/08/19 01:18:47;;;;;;;1.42;1.33;;;;;;;;;;5044478;28;20107;-52
2022/08/19 01:21:50;;;;;;;1.50;1.20;;;;;;;;;;5043001;28;20549;-52
2022/08/19 01:24:16;;;;;;;2.42;1.50;;;;;;;;;;5032343;28;20424;-47
2022/08/19 01:26:44;;;;;;;4.95;1.55;;;;;;;;;;5043573;28;20020;-48
2022/08/19 01:29:10;;;;;;;2.63;1.52;;;;;;;;;;5043983;28;20074;-45
2022/08/19 01:31:39;;;;;;;1.60;1.50;;;;;;;;;;5041399;28;21111;-52
2022/08/19 01:34:05;;;;;;;2.47;1.60;;;;;;;;;;5044524;28;20072;-45
2022/08/19 01:36:34;;;;;;;1.48;1.38;;;;;;;;;;5044337;28;20025;-50
2022/08/19 01:39:03;;;;;;;1.65;1.55;;;;;;;;;;5039184;28;20082;-50
2022/08/19 01:41:29;;;;;;;1.58;1.40;;;;;;;;;;5042326;28;20028;-48
2022/08/19 01:43:55;;;;;;;1.60;1.50;;;;;;;;;;5042709;28;20031;-50
2022/08/19 01:46:21;;;;;;;1.70;1.60;;;;;;;;;;5041340;28;20053;-46
2022/08/19 01:48:47;;;;;;;1.20;1.20;;;;;;;;;;5042958;28;20025;-47
2022/08/19 01:51:14;;;;;;;2.05;1.33;;;;;;;;;;5044241;28;20021;-46
2022/08/19 01:53:40;;;;;;;8.73;1.40;;;;;;;;;;5039634;28;20052;-50
2022/08/19 01:56:06;;;;;;;2.20;1.50;;;;;;;;;;5044123;28;20045;-48
2022/08/19 01:58:38;;;;;;;4.05;1.58;;;;;;;;;;5045049;28;20099;-48
2022/08/19 02:01:05;;;;;;;2.55;1.38;;;;;;;;;;5046241;28;20029;-45
2022/08/19 02:03:31;;;;;;;4.78;1.92;;;;;;;;;;5042916;28;20440;-50
2022/08/19 02:05:59;;;;;;;2.25;1.42;;;;;;;;;;5048384;28;20021;-49
2022/08/19 02:08:29;;;;;;;7.07;2.10;;;;;;;;;;5046183;28;20152;-48
2022/08/19 02:10:55;;;;;;;1.13;1.13;;;;;;;;;;5046706;28;20391;-51
2022/08/19 02:13:24;;;;;;;1.13;1.13;;;;;;;;;;5044066;28;20100;-52
2022/08/19 02:15:50;;;;;;;2.00;1.30;;;;;;;;;;5044490;28;20701;-46
2022/08/19 02:18:16;;;;;;;2.53;1.20;;;;;;;;;;5047857;28;20043;-51
2022/08/19 02:20:43;;;;;;;2.45;1.10;;;;;;;;;;5047019;28;20033;-49
2022/08/19 02:23:11;;;;;;;2.05;1.27;;;;;;;;;;5045012;28;20099;-48
2022/08/19 02:25:38;;;;;;;2.03;1.30;;;;;;;;;;5048092;28;20043;-51
2022/08/19 02:28:04;;;;;;;2.38;1.15;;;;;;;;;;5047494;28;20025;-48
2022/08/19 02:30:30;;;;;;;1.48;1.33;;;;;;;;;;5048902;28;20545;-49
2022/08/19 02:32:57;;;;;;;1.40;1.30;;;;;;;;;;5045258;28;20079;-52
2022/08/19 02:35:23;;;;;;;1.55;1.45;;;;;;;;;;5047097;28;20025;-50
2022/08/19 02:40:34;;;;;;;2.00;1.33;;;;;;;;;;5043040;28;20032;-49
2022/08/19 02:43:08;;;;;;;1.70;1.23;;;;;;;;;;5031972;28;20028;-49
2022/08/19 02:45:36;;;;;;;1.50;1.40;;;;;;;;;;5045815;28;20034;-51
2022/08/19 02:48:02;;;;;;;2.67;1.48;;;;;;;;;;5043317;28;20028;-50
2022/08/19 02:50:28;;;;;;;1.50;1.40;;;;;;;;;;5046046;28;20793;-50
2022/08/19 02:52:54;;;;;;;3.35;1.70;;;;;;;;;;5046187;28;20029;-49
2022/08/19 02:55:20;;;;;;;1.40;1.30;;;;;;;;;;5045146;28;20109;-51
2022/08/19 02:57:46;;;;;;;1.77;1.67;;;;;;;;;;5046207;28;20057;-50
2022/08/19 03:00:13;;;;;;;1.40;1.40;;;;;;;;;;5045870;28;20029;-48
2022/08/19 03:02:39;;;;;;;1.80;1.70;;;;;;;;;;5047322;28;20029;-47
2022/08/19 03:05:09;;;;;;;2.25;1.70;;;;;;;;;;5046675;28;20128;-53
2022/08/19 03:07:35;;;;;;;2.28;1.60;;;;;;;;;;5048619;28;20021;-48
2022/08/19 03:10:01;;;;;;;1.63;1.52;;;;;;;;;;5044971;28;20125;-45
2022/08/19 03:12:27;;;;;;;2.60;1.90;;;;;;;;;;5042417;28;20112;-47
2022/08/19 03:14:52;;;;;;;5.15;1.77;;;;;;;;;;5042847;28;20048;-48
2022/08/19 03:17:18;;;;;;;2.63;1.77;;;;;;;;;;5045837;28;20040;-45
2022/08/19 03:19:44;;;;;;;2.13;1.80;;;;;;;;;;5044662;28;20126;-43
2022/08/19 03:22:10;;;;;;;1.80;1.70;;;;;;;;;;5043698;28;20482;-46
2022/08/19 03:24:37;;;;;;;2.35;1.95;;;;;;;;;;5047530;28;20047;-46
2022/08/19 03:27:04;;;;;;;3.97;2.40;;;;;;;;;;5044881;28;20032;-46
2022/08/19 03:29:31;;;;;;;2.47;2.28;;;;;;;;;;5041027;28;20059;-47
2022/08/19 03:32:03;;;;;;;2.40;2.20;;;;;;;;;;5043238;28;20032;-45
2022/08/19 03:34:31;;;;;;;2.20;2.00;;;;;;;;;;5045021;28;20481;-49
2022/08/19 03:37:00;;;;;;;2.78;2.10;;;;;;;;;;5046858;28;20029;-45
2022/08/19 03:39:26;;;;;;;2.15;2.05;;;;;;;;;;5043008;28;20049;-47
2022/08/19 03:41:55;;;;;;;2.80;2.53;;;;;;;;;;5044365;28;20044;-46
2022/08/19 03:44:21;;;;;;;2.70;2.05;;;;;;;;;;5046324;28;20060;-47
2022/08/19 03:46:59;;;;;;;2.10;2.00;;;;;;;;;;5045469;28;20040;-50
2022/08/19 03:49:29;;;;;;;2.20;2.10;;;;;;;;;;5043100;28;20045;-46
2022/08/19 03:51:57;;;;;;;3.63;2.05;;;;;;;;;;5039387;28;20029;-48
2022/08/19 03:54:25;;;;;;;5.78;2.00;;;;;;;;;;5026642;28;20026;-46
2022/08/19 03:56:53;;;;;;;5.28;2.05;;;;;;;;;;5044179;28;20029;-45
2022/08/19 03:59:28;;;;;;;3.15;2.15;;;;;;;;;;5042512;28;20377;-46
2022/08/19 04:01:56;;;;;;;3.75;2.35;;;;;;;;;;5045412;28;20115;-46
2022/08/19 04:04:22;;;;;;;1.95;1.85;;;;;;;;;;5048096;28;20150;-46
2022/08/19 04:06:48;;;;;;;2.22;2.10;;;;;;;;;;5046039;28;20749;-47
2022/08/19 04:09:14;;;;;;;2.55;2.35;;;;;;;;;;5042390;28;20103;-49
2022/08/19 04:11:44;;;;;;;2.55;2.00;;;;;;;;;;5044785;28;20021;-46
2022/08/19 04:14:12;;;;;;;2.00;1.90;;;;;;;;;;5044567;28;20046;-49
2022/08/19 04:16:38;;;;;;;1.95;1.85;;;;;;;;;;5044290;28;20508;-46
2022/08/19 04:19:05;;;;;;;2.35;2.15;;;;;;;;;;5043723;28;20040;-46
2022/08/19 04:21:31;;;;;;;2.05;1.95;;;;;;;;;;5039959;28;20032;-47
2022/08/19 04:23:57;;;;;;;1.90;1.80;;;;;;;;;;5042741;28;20032;-45
2022/08/19 04:26:32;;;;;;;5.75;2.97;;;;;;;;;;5045573;28;20066;-45
2022/08/19 04:28:59;;;;;;;2.25;1.88;;;;;;;;;;5043458;28;20029;-45
2022/08/19 04:31:28;;;;;;;2.20;2.10;;;;;;;;;;5045627;28;20033;-46
2022/08/19 04:33:56;;;;;;;2.80;2.15;;;;;;;;;;5041333;28;20032;-46
2022/08/19 04:36:27;;;;;;;1.83;1.60;;;;;;;;;;5043726;28;20047;-47
2022/08/19 04:38:55;;;;;;;5.38;1.98;;;;;;;;;;5043111;28;20116;-45
2022/08/19 04:44:05;;;;;;;1.90;1.80;;;;;;;;;;5043759;28;20510;-48
2022/08/19 04:46:31;;;;;;;2.05;1.92;;;;;;;;;;5045581;28;20025;-45
2022/08/19 04:49:02;;;;;;;3.88;1.60;;;;;;;;;;5045377;28;20128;-45
2022/08/19 04:51:30;;;;;;;2.55;1.83;;;;;;;;;;5041861;28;20033;-51
2022/08/19 04:53:57;;;;;;;2.38;1.95;;;;;;;;;;5041697;28;20052;-45
2022/08/19 04:56:26;;;;;;;2.45;2.20;;;;;;;;;;5044203;28;20052;-51
2022/08/19 04:58:53;;;;;;;1.65;1.55;;;;;;;;;;5042202;28;20158;-48
2022/08/19 05:01:26;;;;;;;1.67;1.58;;;;;;;;;;5039978;28;20025;-47
2022/08/19 05:03:52;;;;;;;3.33;1.65;;;;;;;;;;5044762;28;20103;-45
2022/08/19 05:06:20;;;;;;;4.55;1.73;;;;;;;;;;5041190;28;20041;-45
2022/08/19 05:08:47;;;;;;;2.70;1.70;;;;;;;;;;5044108;28;20033;-46
2022/08/19 05:11:19;;;;;;;3.00;1.80;;;;;;;;;;5042426;28;20559;-46
2022/08/19 05:13:48;;;;;;;2.35;1.60;;;;;;;;;;5040894;28;20366;-46
2022/08/19 05:16:16;;;;;;;2.15;1.60;;;;;;;;;;5037858;28;20033;-45
2022/08/19 05:24:12;;;;;;;2.72;1.60;;;;;;;;;;5043951;28;20034;-46
2022/08/19 05:26:40;;;;;;;1.73;1.63;;;;;;;;;;5043091;28;20539;-46
2022/08/19 05:29:08;;;;;;;1.70;1.60;;;;;;;;;;5040200;28;20029;-49
2022/08/19 05:31:35;;;;;;;1.80;1.70;;;;;;;;;;5043771;28;20488;-45
2022/08/19 05:34:00;;;;;;;2.50;1.80;;;;;;;;;;5044294;28;20029;-51
2022/08/19 05:36:28;;;;;;;1.77;1.63;;;;;;;;;;5041935;28;20063;-45
2022/08/19 05:38:54;;;;;;;2.03;1.70;;;;;;;;;;5044027;28;20052;-45
2022/08/19 05:41:29;;;;;;;2.88;2.05;;;;;;;;;;5046057;28;20032;-46
2022/08/19 05:44:00;;;;;;;1.80;1.70;;;;;;;;;;5048300;28;20053;-45
2022/08/19 05:46:26;;;;;;;1.90;1.80;;;;;;;;;;5049148;28;20083;-45
2022/08/19 05:48:52;;;;;;;2.05;1.67;;;;;;;;;;5047743;28;20669;-46
2022/08/19 05:51:18;;;;;;;1.60;1.50;;;;;;;;;;5047422;28;20412;-45
2022/08/19 05:53:45;;;;;;;1.65;1.55;;;;;;;;;;5046992;28;20052;-45
2022/08/19 05:56:15;;;;;;;1.55;1.45;;;;;;;;;;5044156;28;20056;-46
2022/08/19 05:58:44;;;;;;;1.55;1.50;;;;;;;;;;5046673;28;20029;-45
2022/08/19 06:01:17;;;;;;;3.30;1.65;;;;;;;;;;5046258;28;20120;-46
2022/08/19 06:03:43;;;;;;;3.40;1.90;;;;;;;;;;5048794;28;20064;-46
2022/08/19 06:06:11;;;;;;;1.88;1.60;;;;;;;;;;5046104;28;20491;-48
2022/08/19 06:08:37;;;;;;;4.13;1.80;;;;;;;;;;5044897;28;20407;-48
2022/08/19 06:11:20;;;;;;;2.20;2.00;;;;;;;;;;5045287;28;20075;-45
2022/08/19 06:13:50;;;;;;;2.85;1.63;;;;;;;;;;5046697;28;20462;-50
2022/08/19 06:16:23;;;;;;;3.85;1.80;;;;;;;;;;5048037;28;20033;-52
2022/08/19 06:18:53;;;;;;;4.35;1.70;;;;;;;;;;5044773;28;20025;-45
2022/08/19 06:21:25;;;;;;;1.77;1.67;;;;;;;;;;5045940;28;20025;-46
2022/08/19 06:23:51;;;;;;;2.25;1.67;;;;;;;;;;5044042;28;20025;-47
2022/08/19 06:26:19;;;;;;;2.17;1.90;;;;;;;;;;5044874;28;20052;-46
2022/08/19 06:28:47;;;;;;;1.80;1.67;;;;;;;;;;5044940;28;20040;-46
2022/08/19 06:31:19;;;;;;;2.75;2.03;;;;;;;;;;5037280;28;20082;-48
2022/08/19 06:33:47;;;;;;;3.20;1.90;;;;;;;;;;5040189;28;20032;-46
2022/08/19 06:36:34;;;;;;;6.18;1.75;;;;;;;;;;5040606;28;20098;-46
2022/08/19 06:39:13;;;;;;;2.97;1.55;;;;;;;;;;5033970;28;20040;-45
2022/08/19 06:41:42;;;;;;;2.55;2.15;;;;;;;;;;5037246;28;20029;-46
2022/08/19 06:44:08;;;;;;;3.35;1.77;;;;;;;;;;5033963;28;20033;-47
2022/08/19 06:46:35;;;;;;;3.65;1.85;;;;;;;;;;5033407;28;20549;-50
2022/08/19 06:49:01;;;;;;;2.60;1.90;;;;;;;;;;5039329;28;20038;-51
2022/08/19 06:51:27;;;;;;;3.72;1.80;;;;;;;;;;5041341;28;20041;-51
2022/08/19 06:53:54;;;;;;;2.13;1.92;;;;;;;;;;5040062;28;20025;-49
2022/08/19 06:56:24;;;;;;;2.10;2.00;;;;;;;;;;5042995;28;20125;-51
2022/08/19 06:58:52;;;;;;;5.30;1.75;;;;;;;;;;5041333;28;20029;-50
2022/08/19 07:01:20;;;;;;;7.18;2.00;;;;;;;;;;5040313;28;20078;-50
2022/08/19 07:03:46;;;;;;;2.00;1.90;;;;;;;;;;5042161;28;20444;-49
2022/08/19 07:06:17;;;;;;;3.47;1.83;;;;;;;;;;5039670;28;20799;-50
2022/08/19 07:08:44;;;;;;;2.95;1.92;;;;;;;;;;5040280;28;20039;-48
2022/08/19 07:11:14;;;;;;;3.60;1.95;;;;;;;;;;5041952;28;20032;-49
2022/08/19 07:13:43;;;;;;;1.90;1.80;;;;;;;;;;5040968;28;20033;-49
2022/08/19 07:16:15;;;;;;;3.60;1.92;;;;;;;;;;5039853;28;20032;-49
2022/08/19 07:18:41;;;;;;;4.80;2.10;;;;;;;;;;5041051;28;20528;-48
2022/08/19 07:21:12;;;;;;;4.25;1.88;;;;;;;;;;5043997;28;20075;-46
2022/08/19 07:23:38;;;;;;;5.38;2.30;;;;;;;;;;5040383;28;20029;-47
2022/08/19 07:26:10;;;;;;;2.30;2.17;;;;;;;;;;5039647;28;20029;-50
2022/08/19 07:28:38;;;;;;;2.20;2.00;;;;;;;;;;5043072;28;20367;-47
2022/08/19 07:31:09;;;;;;;3.22;2.22;;;;;;;;;;5041775;28;20485;-49
2022/08/19 07:33:36;;;;;;;2.15;2.05;;;;;;;;;;5040260;28;20051;-46
2022/08/19 07:36:06;;;;;;;4.50;2.25;;;;;;;;;;5041893;28;20294;-47
2022/08/19 07:38:33;;;;;;;4.93;2.50;;;;;;;;;;5043755;28;20034;-46
2022/08/19 07:41:00;;;;;;;2.83;2.08;;;;;;;;;;5044969;28;20041;-46
2022/08/19 07:43:27;;;;;;;2.95;2.08;;;;;;;;;;5042376;28;20032;-50
2022/08/19 07:45:56;;;;;;;2.25;2.08;;;;;;;;;;5042182;28;20034;-49
2022/08/19 07:48:27;;;;;;;3.67;2.42;;;;;;;;;;5042627;28;20041;-48
2022/08/19 07:50:56;;;;;;;4.28;2.50;;;;;;;;;;5041984;28;20048;-46
2022/08/19 07:53:24;;;;;;;2.20;2.10;;;;;;;;;;5039882;28;20025;-47
2022/08/19 07:55:50;;;;;;;2.70;2.35;;;;;;;;;;5037398;28;20150;-45
2022/08/19 07:58:19;;;;;;;2.88;2.67;;;;;;;;;;5043975;28;20120;-46
2022/08/19 08:00:47;;;;;;;8.07;2.63;;;;;;;;;;5028885;28;20125;-47
2022/08/19 08:03:15;;;;;;;3.75;2.38;;;;;;;;;;5043817;28;20037;-49
2022/08/19 08:11:11;;;;;;;5.57;2.50;;;;;;;;;;5041172;28;20485;-51
2022/08/19 08:13:37;;;;;;;4.75;2.50;;;;;;;;;;5045326;28;20083;-49
2022/08/19 08:16:03;;;;;;;2.67;2.30;;;;;;;;;;5034234;28;20541;-49
2022/08/19 08:18:29;;;;;;;2.70;2.50;;;;;;;;;;5034933;28;20041;-47
2022/08/19 08:20:56;;;;;;;2.80;2.60;;;;;;;;;;5037860;28;20025;-46
2022/08/19 08:23:22;;;;;;;6.78;2.50;;;;;;;;;;5039870;28;20029;-50
2022/08/19 08:25:48;;;;;;;2.88;2.67;;;;;;;;;;5039930;28;20075;-51
2022/08/19 08:28:15;;;;;;;5.80;2.47;;;;;;;;;;5046532;28;20116;-45
2022/08/19 08:30:43;;;;;;;3.90;2.70;;;;;;;;;;5038969;28;20021;-50
2022/08/19 08:33:09;;;;;;;2.50;2.30;;;;;;;;;;5043193;28;20056;-47
2022/08/19 08:35:35;;;;;;;2.85;2.25;;;;;;;;;;5040524;28;20037;-48
2022/08/19 08:38:03;;;;;;;4.10;2.35;;;;;;;;;;5040286;28;20064;-52
2022/08/19 08:40:43;;;;;;;6.07;2.20;;;;;;;;;;5039943;28;20104;-45
2022/08/19 08:43:43;;;;;;;5.07;2.45;;;;;;;;;;5039009;28;20064;-49
2022/08/19 08:46:25;;;;;;;2.83;2.63;;;;;;;;;;5032584;28;20113;-46
2022/08/19 08:48:56;;;;;;;2.75;2.55;;;;;;;;;;5036702;28;20037;-49
2022/08/19 08:51:28;;;;;;;2.38;2.17;;;;;;;;;;5040902;28;20107;-49
2022/08/19 08:53:55;;;;;;;7.22;2.50;;;;;;;;;;5042957;28;20041;-47
2022/08/19 08:56:22;;;;;;;6.57;2.67;;;;;;;;;;5043240;28;20155;-47
2022/08/19 08:59:01;;;;;;;2.47;2.38;;;;;;;;;;5045825;28;20116;-46
2022/08/19 09:01:27;;;;;;;4.18;2.80;;;;;;;;;;5042744;28;20029;-46
2022/08/19 09:03:53;;;;;;;8.68;2.72;;;;;;;;;;5035501;28;20023;-48
2022/08/19 09:06:36;;;;;;;2.83;2.63;;;;;;;;;;5039477;28;20037;-46
2022/08/19 09:09:20;;;;;;;2.60;2.40;;;;;;;;;;5043203;28;20133;-48
2022/08/19 09:11:58;;;;;;;3.97;2.20;;;;;;;;;;5042960;28;20028;-46
2022/08/19 09:14:35;;;;;;;3.97;2.60;;;;;;;;;;5042686;28;20079;-46
2022/08/19 09:17:07;;;;;;;3.78;2.30;;;;;;;;;;5041695;28;20038;-48
2022/08/19 09:19:35;;;;;;;2.47;2.28;;;;;;;;;;5039703;28;20032;-48
2022/08/19 09:22:01;;;;;;;9.65;2.45;;;;;;;;;;5038642;28;20597;-45
2022/08/19 09:24:27;;;;;;;10.52;2.53;;;;;;;;;;5042074;28;20115;-52
2022/08/19 09:26:52;;;;;;;3.67;2.40;;;;;;;;;;5040745;28;20040;-47
2022/08/19 09:29:20;;;;;;;3.38;2.03;;;;;;;;;;5042441;28;20029;-50
2022/08/19 09:31:46;;;;;;;2.42;2.22;;;;;;;;;;5036538;28;20036;-51
2022/08/19 09:34:12;;;;;;;5.68;2.38;;;;;;;;;;5039810;28;20037;-46
2022/08/19 09:36:38;;;;;;;2.53;2.40;;;;;;;;;;5041312;28;20040;-46
2022/08/19 09:39:05;;;;;;;12.18;2.45;;;;;;;;;;5043746;28;20060;-48
2022/08/19 09:41:31;;;;;;;2.95;2.30;;;;;;;;;;5040621;28;20091;-47
2022/08/19 09:43:58;;;;;;;3.03;2.10;;;;;;;;;;5040185;28;20392;-47
2022/08/19 09:46:26;;;;;;;2.70;2.50;;;;;;;;;;5039163;28;20040;-48
2022/08/19 09:48:53;;;;;;;2.65;2.28;;;;;;;;;;5038385;28;20128;-50
2022/08/19 09:51:22;;;;;;;2.63;2.42;;;;;;;;;;5037510;28;20507;-48
2022/08/19 09:53:50;;;;;;;5.03;2.17;;;;;;;;;;5041340;28;20598;-48
2022/08/19 09:56:18;;;;;;;3.35;1.98;;;;;;;;;;5035309;28;20387;-47
2022/08/19 09:58:44;;;;;;;4.50;2.30;;;;;;;;;;5031696;28;20025;-49
2022/08/19 10:01:16;;;;;;;3.63;2.35;;;;;;;;;;5039252;28;20033;-49
2022/08/19 10:03:41;;;;;;;2.50;2.30;;;;;;;;;;5032436;28;20021;-51
2022/08/19 10:06:08;;;;;;;3.60;2.10;;;;;;;;;;5042222;28;20436;-48
2022/08/19 10:08:36;;;;;;;5.25;2.22;;;;;;;;;;5037755;28;20495;-48
2022/08/19 10:11:03;;;;;;;3.17;2.80;;;;;;;;;;5036536;28;20473;-51
2022/08/19 10:13:31;;;;;;;6.82;2.70;;;;;;;;;;5034642;28;20033;-47
2022/08/19 10:16:06;;;;;;;3.75;2.38;;;;;;;;;;5036395;28;20108;-48
2022/08/19 10:18:33;;;;;;;2.55;2.35;;;;;;;;;;5040011;28;20094;-48
2022/08/19 10:21:19;;;;;;;3.00;2.13;;;;;;;;;;5038259;28;20047;-47
2022/08/19 10:23:57;;;;;;;2.40;2.20;;;;;;;;;;5038711;28;20029;-49
2022/08/19 10:26:29;;;;;;;3.33;2.50;;;;;;;;;;5046074;28;20147;-46
2022/08/19 10:28:55;;;;;;;1.92;1.83;;;;;;;;;;5039144;28;20087;-49
2022/08/19 10:31:24;;;;;;;4.88;2.15;;;;;;;;;;5039956;28;20036;-49
2022/08/19 10:33:50;;;;;;;2.17;2.05;;;;;;;;;;5036616;28;20166;-47
2022/08/19 10:36:19;;;;;;;4.10;2.15;;;;;;;;;;5044206;28;20029;-48
2022/08/19 10:38:47;;;;;;;3.78;1.88;;;;;;;;;;5035638;28;20048;-49
2022/08/19 10:41:16;;;;;;;5.07;1.95;;;;;;;;;;5035249;28;20114;-50
2022/08/19 10:43:42;;;;;;;2.20;2.00;;;;;;;;;;5017963;28;20029;-50
2022/08/19 10:46:10;;;;;;;2.38;2.15;;;;;;;;;;5041923;28;20062;-47
2022/08/19 10:48:36;;;;;;;2.00;1.90;;;;;;;;;;5035965;28;20025;-51
2022/08/19 10:53:47;;;;;;;5.68;2.45;;;;;;;;;;5037416;28;20032;-47
2022/08/19 10:58:58;;;;;;;2.75;2.13;;;;;;;;;;5038425;28;20055;-46
2022/08/19 11:01:25;;;;;;;2.00;1.90;;;;;;;;;;5040535;28;20033;-49
2022/08/19 11:03:50;;;;;;;2.15;2.05;;;;;;;;;;5043144;28;20041;-51
2022/08/19 11:06:16;;;;;;;6.82;2.30;;;;;;;;;;5045147;28;20032;-47
2022/08/19 11:08:45;;;;;;;4.03;1.90;;;;;;;;;;5045979;28;20497;-47
2022/08/19 11:11:11;;;;;;;3.85;2.00;;;;;;;;;;5047336;28;20524;-47
2022/08/19 11:13:40;;;;;;;6.10;2.17;;;;;;;;;;5045765;28;20052;-49
2022/08/19 11:16:13;;;;;;;2.50;2.30;;;;;;;;;;5041351;28;20056;-46
2022/08/19 11:18:46;;;;;;;2.80;2.13;;;;;;;;;;5039361;28;20432;-49
2022/08/19 11:21:18;;;;;;;3.25;2.38;;;;;;;;;;5045403;28;20459;-49
2022/08/19 11:23:49;;;;;;;2.53;2.33;;;;;;;;;;5026869;28;20029;-49
2022/08/19 11:26:16;;;;;;;2.30;2.20;;;;;;;;;;5039105;28;20063;-52
2022/08/19 11:28:42;;;;;;;2.50;2.30;;;;;;;;;;5040622;28;20033;-46
2022/08/19 11:31:18;;;;;;;5.22;2.35;;;;;;;;;;5030047;28;20059;-51
2022/08/19 11:33:45;;;;;;;2.40;2.10;;;;;;;;;;5044701;28;20024;-48
2022/08/19 11:36:12;;;;;;;3.47;2.28;;;;;;;;;;5039445;28;20029;-51
2022/08/19 11:38:38;;;;;;;2.20;2.10;;;;;;;;;;5023412;28;20049;-47
2022/08/19 11:41:07;;;;;;;7.57;3.10;;;;;;;;;;5041866;28;20091;-50
2022/08/19 11:43:34;;;;;;;2.58;2.40;;;;;;;;;;5043268;28;20116;-46
2022/08/19 11:46:03;;;;;;;7.53;2.45;;;;;;;;;;5045397;28;20087;-48
2022/08/19 11:48:28;;;;;;;7.43;2.50;;;;;;;;;;5046125;28;20474;-48
2022/08/19 11:50:57;;;;;;;3.80;2.20;;;;;;;;;;5045348;28;20047;-47
2022/08/19 11:53:23;;;;;;;2.83;2.50;;;;;;;;;;5046126;28;20090;-45
2022/08/19 11:55:50;;;;;;;2.50;2.30;;;;;;;;;;5044897;28;20485;-46
2022/08/19 11:58:17;;;;;;;2.50;2.40;;;;;;;;;;5043557;28;20135;-46
2022/08/19 12:00:44;;;;;;;2.55;2.40;;;;;;;;;;5045322;28;20065;-46
2022/08/19 12:03:11;;;;;;;2.83;2.63;;;;;;;;;;5044840;28;20036;-50
2022/08/19 12:05:39;;;;;;;5.85;2.65;;;;;;;;;;5043838;28;20028;-51
2022/08/19 12:08:05;;;;;;;4.20;2.63;;;;;;;;;;5044560;28;20564;-45
2022/08/19 12:10:32;;;;;;;2.70;2.50;;;;;;;;;;5041571;28;20027;-51
2022/08/19 12:12:58;;;;;;;3.28;2.50;;;;;;;;;;5041384;28;20366;-45
2022/08/19 12:15:24;;;;;;;3.47;2.95;;;;;;;;;;5039493;28;20048;-48
2022/08/19 12:17:49;;;;;;;3.22;2.92;;;;;;;;;;5044415;28;20025;-51
2022/08/19 12:20:16;;;;;;;3.90;2.85;;;;;;;;;;5045640;28;20027;-47
2022/08/19 12:22:43;;;;;;;3.72;3.28;;;;;;;;;;5044330;28;20211;-46
2022/08/19 12:25:11;;;;;;;3.83;3.17;;;;;;;;;;5045330;28;20032;-49
2022/08/19 12:27:38;;;;;;;3.40;3.10;;;;;;;;;;5045550;28;20397;-46
2022/08/19 12:30:06;;;;;;;2.95;2.72;;;;;;;;;;5044152;28;20028;-49
2022/08/19 12:32:33;;;;;;;5.50;3.05;;;;;;;;;;5044689;28;20477;-46
2022/08/19 12:34:58;;;;;;;3.13;2.92;;;;;;;;;;5038918;28;20116;-48
2022/08/19 12:37:24;;;;;;;5.70;2.60;;;;;;;;;;5041567;28;20107;-47
2022/08/19 12:39:50;;;;;;;3.60;3.30;;;;;;;;;;5043681;28;20124;-49
2022/08/19 12:42:17;;;;;;;3.13;2.83;;;;;;;;;;5044186;28;20083;-50
2022/08/19 12:44:43;;;;;;;2.75;2.55;;;;;;;;;;5034860;28;20053;-48
2022/08/19 12:47:11;;;;;;;3.50;3.20;;;;;;;;;;5041475;28;20724;-47
2022/08/19 12:49:39;;;;;;;3.72;3.00;;;;;;;;;;5043922;28;20163;-46
2022/08/19 12:52:07;;;;;;;4.30;3.20;;;;;;;;;;5040313;28;20025;-48
2022/08/19 12:54:33;;;;;;;3.88;3.25;;;;;;;;;;5045017;28;20045;-50
2022/08/19 12:56:59;;;;;;;6.18;3.50;;;;;;;;;;5044019;28;20036;-46
2022/08/19 12:59:26;;;;;;;3.55;3.10;;;;;;;;;;5044486;28;20389;-46
2022/08/19 13:01:52;;;;;;;4.97;3.20;;;;;;;;;;5040630;28;20371;-50
2022/08/19 13:04:18;;;;;;;3.22;3.00;;;;;;;;;;5044477;28;20049;-49
2022/08/19 13:06:44;;;;;;;4.82;3.35;;;;;;;;;;5045106;28;20025;-46
2022/08/19 13:09:10;;;;;;;5.57;3.33;;;;;;;;;;5041463;28;20044;-50
2022/08/19 13:11:37;;;;;;;4.47;3.15;;;;;;;;;;5043774;28;20055;-51
2022/08/19 13:14:03;;;;;;;3.47;3.13;;;;;;;;;;5044568;28;20029;-49
2022/08/19 13:16:29;;;;;;;4.40;3.10;;;;;;;;;;5046951;28;20032;-49
2022/08/19 13:18:57;;;;;;;3.78;3.22;;;;;;;;;;5039472;28;20813;-51
2022/08/19 13:21:26;;;;;;;6.15;3.58;;;;;;;;;;5038875;28;20095;-51
2022/08/19 13:23:53;;;;;;;3.80;3.47;;;;;;;;;;5043851;28;20029;-47
2022/08/19 13:26:20;;;;;;;4.47;3.40;;;;;;;;;;5039993;28;20160;-48
2022/08/19 13:34:27;;;;;;;3.92;3.30;;;;;;;;;;5036418;28;20044;-51
2022/08/19 13:36:53;;;;;;;4.07;2.97;;;;;;;;;;5037260;28;20036;-47
2022/08/19 13:39:19;;;;;;;4.07;3.10;;;;;;;;;;5042311;28;20044;-52
2022/08/19 13:41:49;;;;;;;3.63;3.38;;;;;;;;;;5041878;28;20036;-52
2022/08/19 13:44:20;;;;;;;4.32;3.42;;;;;;;;;;5044060;28;20037;-49
2022/08/19 13:46:48;;;;;;;6.00;3.00;;;;;;;;;;5043022;28;20041;-45
2022/08/19 13:49:15;;;;;;;4.10;3.35;;;;;;;;;;5043857;28;20029;-50
2022/08/19 13:51:42;;;;;;;3.47;3.13;;;;;;;;;;5043077;28;20064;-47
2022/08/19 13:54:10;;;;;;;4.47;3.63;;;;;;;;;;5044271;28;20568;-47
2022/08/19 13:56:41;;;;;;;5.55;3.10;;;;;;;;;;5041590;28;20111;-50
2022/08/19 13:59:07;;;;;;;3.22;3.00;;;;;;;;;;5041576;28;20037;-47
2022/08/19 14:01:32;;;;;;;8.13;3.42;;;;;;;;;;5048360;28;20041;-51
2022/08/19 14:03:58;;;;;;;3.85;3.53;;;;;;;;;;5045011;28;20032;-46
2022/08/19 14:06:25;;;;;;;5.57;3.30;;;;;;;;;;5038112;28;20120;-48
2022/08/19 14:08:52;;;;;;;3.92;3.00;;;;;;;;;;5040639;28;20420;-48
2022/08/19 14:11:18;;;;;;;4.15;3.20;;;;;;;;;;5038244;28;20028;-47
2022/08/19 14:13:44;;;;;;;5.25;3.00;;;;;;;;;;5035718;28;20021;-48
2022/08/19 14:16:11;;;;;;;3.30;3.08;;;;;;;;;;5041819;28;20381;-48
2022/08/19 14:18:38;;;;;;;6.05;3.80;;;;;;;;;;5037760;28;20378;-46
2022/08/19 14:21:04;;;;;;;3.72;2.90;;;;;;;;;;5041814;28;20115;-49
2022/08/19 14:23:31;;;;;;;4.60;3.05;;;;;;;;;;5038442;28;20086;-47
2022/08/19 14:26:11;;;;;;;3.80;3.50;;;;;;;;;;5025088;28;20043;-47
2022/08/19 14:28:40;;;;;;;6.25;3.42;;;;;;;;;;5041958;28;20036;-50
2022/08/19 14:31:07;;;;;;;4.20;3.22;;;;;;;;;;5045228;28;20114;-46
2022/08/19 14:33:32;;;;;;;3.92;3.55;;;;;;;;;;5046688;28;20355;-45
2022/08/19 14:36:00;;;;;;;3.83;3.50;;;;;;;;;;5045433;28;20120;-49
2022/08/19 14:38:26;;;;;;;4.57;3.33;;;;;;;;;;5045325;28;20405;-45
2022/08/19 14:40:51;;;;;;;4.30;3.42;;;;;;;;;;5045682;28;20029;-48
2022/08/19 14:43:18;;;;;;;4.75;3.20;;;;;;;;;;5046004;28;20655;-48
2022/08/19 14:45:44;;;;;;;4.38;3.97;;;;;;;;;;5048988;28;20060;-46
2022/08/19 14:48:10;;;;;;;3.90;3.50;;;;;;;;;;5048409;28;20045;-46
2022/08/19 14:50:37;;;;;;;8.88;3.83;;;;;;;;;;5045545;28;20025;-48
2022/08/19 14:53:07;;;;;;;4.78;3.00;;;;;;;;;;5045076;28;20025;-47
2022/08/19 14:55:33;;;;;;;3.33;3.03;;;;;;;;;;5040771;28;20041;-46
2022/08/19 14:57:59;;;;;;;9.93;2.97;;;;;;;;;;5042913;28;20032;-45
2022/08/19 15:00:25;;;;;;;3.45;3.05;;;;;;;;;;5042323;28;20037;-46
2022/08/19 15:02:53;;;;;;;9.63;3.33;;;;;;;;;;5021566;28;20471;-51
2022/08/19 15:05:18;;;;;;;2.92;2.45;;;;;;;;;;5043036;28;20033;-46
2022/08/19 15:07:44;;;;;;;3.13;2.80;;;;;;;;;;5042394;28;20053;-48
2022/08/19 15:10:11;;;;;;;3.83;2.20;;;;;;;;;;5044316;28;20041;-48
2022/08/19 15:12:42;;;;;;;5.20;2.38;;;;;;;;;;5044755;28;20033;-46
2022/08/19 15:15:13;;;;;;;3.43;2.20;;;;;;;;;;5041446;28;20112;-50